Time;durP1;ratioP1;P1;durP2;ratioP2;P2;SDS_P1;SDS_P2;PMS_P1;PMS_P2;Temp;Humidity;BMP_temperature;BMP_pressure;BME280_temperature;BME280_humidity;BME280_pressure;Samples;Min_cycle;Max_cycle;Signal;HPM_P1;HPM_P2
2022/03/30 00:00:15;;;;;;;21.20;4.10;;;12.30;83.00;;;;;;4971033;28;20054;-79
2022/03/30 00:02:41;;;;;;;17.73;4.25;;;12.40;81.90;;;;;;4970752;29;20063;-79
2022/03/30 00:05:07;;;;;;;12.98;4.28;;;12.40;82.10;;;;;;4973907;28;20059;-79
2022/03/30 00:07:33;;;;;;;19.15;4.60;;;12.40;80.60;;;;;;4970469;28;20100;-79
2022/03/30 00:10:00;;;;;;;26.48;4.72;;;12.40;78.90;;;;;;4970062;28;20027;-79
2022/03/30 00:12:36;;;;;;;19.13;5.72;;;12.50;78.60;;;;;;4970090;29;20546;-79
2022/03/30 00:15:02;;;;;;;16.58;3.55;;;12.60;77.00;;;;;;4971152;28;20028;-79
2022/03/30 00:17:27;;;;;;;24.90;3.97;;;12.60;76.70;;;;;;4970479;28;20475;-79
2022/03/30 00:19:54;;;;;;;17.67;3.90;;;12.60;76.70;;;;;;4972816;28;20547;-79
2022/03/30 00:22:19;;;;;;;11.90;2.90;;;12.60;76.80;;;;;;4972289;29;20031;-79
2022/03/30 00:24:45;;;;;;;18.48;3.45;;;12.50;77.60;;;;;;4971124;28;20027;-79
2022/03/30 00:27:15;;;;;;;23.30;3.65;;;12.50;79.50;;;;;;4972458;28;20035;-79
2022/03/30 00:29:41;;;;;;;20.13;4.93;;;12.50;77.50;;;;;;4973043;28;20404;-79
2022/03/30 00:32:07;;;;;;;15.35;3.58;;;12.40;77.80;;;;;;4973047;29;20056;-79
2022/03/30 00:34:33;;;;;;;14.50;4.53;;;12.40;78.00;;;;;;4971380;28;20373;-80
2022/03/30 00:36:59;;;;;;;17.70;4.20;;;12.40;81.60;;;;;;4968406;28;20251;-80
2022/03/30 00:39:24;;;;;;;23.52;5.28;;;12.20;83.30;;;;;;4968048;29;20019;-78
2022/03/30 00:41:50;;;;;;;26.25;4.75;;;12.40;76.40;;;;;;4968301;29;20059;-79
2022/03/30 00:44:16;;;;;;;11.27;2.63;;;12.50;80.20;;;;;;4968130;29;20060;-79
2022/03/30 00:46:43;;;;;;;17.38;3.17;;;12.70;75.50;;;;;;4967871;29;20038;-80
2022/03/30 00:49:13;;;;;;;23.17;3.42;;;12.80;75.90;;;;;;4968650;29;20032;-79
2022/03/30 00:51:39;;;;;;;18.52;3.55;;;12.90;74.80;;;;;;4963769;29;20031;-79
2022/03/30 00:54:05;;;;;;;14.85;4.30;;;13.50;73.50;;;;;;4966862;29;20051;-80
2022/03/30 00:56:36;;;;;;;24.05;3.50;;;13.60;73.50;;;;;;4969497;29;20038;-79
2022/03/30 00:59:06;;;;;;;13.98;4.00;;;13.60;72.80;;;;;;4966658;29;20380;-79
2022/03/30 01:01:35;;;;;;;18.58;3.40;;;13.50;74.00;;;;;;4973457;28;20041;-80
2022/03/30 01:04:05;;;;;;;18.95;4.18;;;13.30;76.00;;;;;;4968137;28;20066;-80
2022/03/30 01:06:34;;;;;;;21.75;3.13;;;13.20;75.10;;;;;;4984875;28;20039;-79
2022/03/30 01:09:00;;;;;;;20.30;3.60;;;13.10;75.70;;;;;;4969561;28;20022;-79
2022/03/30 01:11:28;;;;;;;20.23;3.90;;;13.10;75.00;;;;;;4969410;28;20022;-79
2022/03/30 01:13:54;;;;;;;24.42;4.05;;;13.00;75.70;;;;;;4968170;28;20042;-80
2022/03/30 01:16:21;;;;;;;11.43;2.88;;;12.90;77.60;;;;;;4983557;28;20011;-80
2022/03/30 01:18:47;;;;;;;28.58;5.10;;;12.80;77.70;;;;;;4969386;28;20074;-79
2022/03/30 01:21:13;;;;;;;19.25;3.90;;;12.70;78.80;;;;;;4984942;28;20074;-79
2022/03/30 01:23:39;;;;;;;20.90;3.17;;;12.60;79.70;;;;;;4968777;28;20030;-80
2022/03/30 01:26:06;;;;;;;16.65;3.22;;;12.40;80.70;;;;;;4969195;28;20605;-80
2022/03/30 01:28:32;;;;;;;23.55;4.10;;;12.30;81.80;;;;;;4967667;28;20015;-80
2022/03/30 01:33:52;;;;;;;20.27;3.95;;;12.20;83.00;;;;;;4982860;28;20443;-80
2022/03/30 01:36:25;;;;;;;13.50;4.25;;;12.20;82.50;;;;;;4984326;28;20027;-80
2022/03/30 01:38:51;;;;;;;17.67;3.75;;;12.20;82.80;;;;;;4984297;28;20019;-80
2022/03/30 01:41:26;;;;;;;33.42;3.95;;;12.20;83.30;;;;;;4968166;28;20487;-79
2022/03/30 01:43:52;;;;;;;10.77;2.90;;;12.10;84.30;;;;;;4966143;28;20022;-80
2022/03/30 01:46:22;;;;;;;20.23;3.92;;;12.10;84.60;;;;;;4970440;28;20391;-79
2022/03/30 01:48:50;;;;;;;11.57;4.45;;;12.00;86.80;;;;;;4968827;28;20035;-80
2022/03/30 01:51:19;;;;;;;14.68;5.28;;;11.90;88.70;;;;;;4967447;28;20099;-79
2022/03/30 01:53:45;;;;;;;11.77;3.90;;;11.80;90.50;;;;;;4983389;28;20054;-79
2022/03/30 01:56:11;;;;;;;19.90;4.57;;;11.70;91.00;;;;;;4966863;28;20039;-79
2022/03/30 01:58:38;;;;;;;15.32;3.83;;;11.70;91.00;;;;;;4982795;28;20023;-80
2022/03/30 02:01:05;;;;;;;18.45;5.13;;;11.70;91.30;;;;;;4966199;28;20025;-80
2022/03/30 02:03:32;;;;;;;9.77;3.17;;;11.70;91.80;;;;;;4984366;28;20050;-79
2022/03/30 02:06:00;;;;;;;10.82;4.45;;;11.70;92.40;;;;;;4965341;28;20633;-79
2022/03/30 02:08:25;;;;;;;15.38;4.63;;;11.60;93.00;;;;;;4986941;28;20454;-79
2022/03/30 02:10:51;;;;;;;14.52;5.82;;;11.60;93.70;;;;;;4966596;28;20031;-79
2022/03/30 02:13:19;;;;;;;13.80;4.38;;;11.60;94.60;;;;;;4966249;28;20664;-79
2022/03/30 02:15:45;;;;;;;20.10;6.18;;;11.50;96.50;;;;;;4984687;28;20011;-80
2022/03/30 02:18:11;;;;;;;18.77;5.60;;;11.40;97.80;;;;;;4967219;28;20042;-79
2022/03/30 02:20:44;;;;;;;15.60;4.13;;;11.30;99.60;;;;;;4984349;28;20062;-80
2022/03/30 02:23:10;;;;;;;17.13;5.28;;;11.20;99.90;;;;;;4964925;28;20003;-79
2022/03/30 02:25:35;;;;;;;13.77;4.95;;;11.20;99.90;;;;;;4982578;28;20622;-79
2022/03/30 02:28:04;;;;;;;16.48;4.95;;;11.10;99.90;;;;;;4984920;28;20034;-79
2022/03/30 02:30:30;;;;;;;14.07;4.10;;;11.10;99.90;;;;;;4983253;28;20046;-80
2022/03/30 02:32:57;;;;;;;12.68;5.03;;;11.10;99.90;;;;;;4967028;28;20114;-80
2022/03/30 02:35:26;;;;;;;17.48;5.80;;;11.00;99.90;;;;;;4973225;28;20110;-79
2022/03/30 02:37:54;;;;;;;18.90;6.18;;;11.00;99.90;;;;;;4994574;28;20007;-79
2022/03/30 02:40:21;;;;;;;12.82;5.95;;;11.00;99.90;;;;;;4994148;28;20030;-78
2022/03/30 02:42:47;;;;;;;11.82;4.70;;;11.00;99.90;;;;;;4977878;28;20069;-79
2022/03/30 02:45:15;;;;;;;17.50;4.32;;;11.00;99.90;;;;;;4978058;28;20031;-78
2022/03/30 02:50:25;;;;;;;12.50;4.43;;;10.90;99.90;;;;;;4996372;28;20029;-78
2022/03/30 02:52:51;;;;;;;16.25;4.53;;;10.80;99.90;;;;;;4979709;28;20094;-79
2022/03/30 02:55:17;;;;;;;11.68;3.90;;;10.80;99.90;;;;;;4993464;28;20058;-79
2022/03/30 02:57:43;;;;;;;13.30;4.43;;;10.80;99.90;;;;;;4978938;28;20006;-78
2022/03/30 03:00:09;;;;;;;17.00;4.22;;;10.70;99.90;;;;;;4994226;28;20058;-79
2022/03/30 03:02:35;;;;;;;12.93;5.13;;;10.70;99.90;;;;;;4993690;28;20098;-79
2022/03/30 03:05:02;;;;;;;15.30;5.15;;;10.60;99.90;;;;;;4977316;28;20487;-78
2022/03/30 03:07:29;;;;;;;20.52;5.20;;;10.60;99.90;;;;;;4994711;28;20070;-79
2022/03/30 03:09:54;;;;;;;9.98;3.88;;;10.60;99.90;;;;;;4977945;28;20018;-77
2022/03/30 03:12:29;;;;;;;19.00;5.15;;;10.50;99.90;;;;;;4980287;28;20042;-78
2022/03/30 03:14:54;;;;;;;13.02;5.05;;;10.40;99.90;;;;;;4978055;28;20043;-78
2022/03/30 03:17:20;;;;;;;16.92;3.85;;;10.40;99.90;;;;;;4994889;28;20031;-78
2022/03/30 03:19:49;;;;;;;20.17;6.03;;;10.30;99.90;;;;;;4977810;28;20041;-78
2022/03/30 03:22:15;;;;;;;11.93;3.88;;;10.20;99.90;;;;;;4993663;28;20039;-79
2022/03/30 03:24:40;;;;;;;12.52;5.28;;;10.80;99.90;;;;;;4979828;28;20027;-79
2022/03/30 03:27:06;;;;;;;12.90;4.10;;;10.20;99.90;;;;;;4980479;28;20042;-79
2022/03/30 03:29:33;;;;;;;16.13;5.47;;;10.10;99.90;;;;;;4977064;28;20031;-78
2022/03/30 03:31:59;;;;;;;14.88;4.40;;;10.10;99.90;;;;;;4994179;28;20038;-79
2022/03/30 03:34:24;;;;;;;23.77;4.63;;;10.10;99.90;;;;;;4993217;28;20015;-78
2022/03/30 03:36:51;;;;;;;18.63;4.85;;;10.00;99.90;;;;;;4976031;28;20475;-78
2022/03/30 03:39:17;;;;;;;16.48;4.43;;;10.00;99.90;;;;;;4977041;28;20083;-79
2022/03/30 03:41:43;;;;;;;11.10;4.50;;;9.90;99.90;;;;;;4994386;28;20046;-78
2022/03/30 03:44:19;;;;;;;16.55;4.65;;;9.90;99.90;;;;;;4993200;28;20026;-79
2022/03/30 03:46:45;;;;;;;19.05;4.82;;;9.80;99.90;;;;;;4977323;28;20082;-78
2022/03/30 03:49:11;;;;;;;14.20;4.43;;;9.80;99.90;;;;;;4976589;28;20019;-79
2022/03/30 03:51:42;;;;;;;15.40;4.28;;;9.70;99.90;;;;;;4975467;28;20030;-79
2022/03/30 03:54:10;;;;;;;19.15;5.57;;;9.70;99.90;;;;;;4993228;28;20042;-79
2022/03/30 03:56:47;;;;;;;13.15;4.97;;;9.70;99.90;;;;;;4976598;28;20079;-79
2022/03/30 03:59:13;;;;;;;14.73;4.40;;;9.60;99.90;;;;;;4976190;28;20031;-79
2022/03/30 04:01:39;;;;;;;17.63;5.68;;;9.60;99.90;;;;;;4993346;28;20030;-78
2022/03/30 04:04:05;;;;;;;12.93;5.18;;;9.50;99.90;;;;;;4975141;28;20007;-79
2022/03/30 04:06:31;;;;;;;19.17;5.38;;;9.60;99.90;;;;;;4975215;28;20037;-79
2022/03/30 04:08:58;;;;;;;11.80;5.07;;;9.60;99.90;;;;;;4975380;28;20031;-79
2022/03/30 04:11:23;;;;;;;26.05;6.00;;;9.50;99.90;;;;;;4977004;28;20094;-79
2022/03/30 04:13:49;;;;;;;13.70;5.10;;;9.50;99.90;;;;;;4978957;28;20030;-79
2022/03/30 04:16:23;;;;;;;10.50;3.95;;;9.50;99.90;;;;;;4996510;28;20074;-78
2022/03/30 04:18:55;;;;;;;11.65;4.72;;;9.40;99.90;;;;;;4997512;28;20388;-79
2022/03/30 04:21:21;;;;;;;16.13;4.25;;;9.40;99.90;;;;;;4995400;28;20041;-79
2022/03/30 04:23:47;;;;;;;18.65;4.63;;;9.40;99.90;;;;;;4978275;28;20031;-79
2022/03/30 04:26:20;;;;;;;16.23;5.22;;;9.40;99.90;;;;;;4980203;28;20022;-78
2022/03/30 04:28:46;;;;;;;16.58;4.88;;;9.40;99.90;;;;;;4979860;28;20019;-79
2022/03/30 04:31:12;;;;;;;11.98;3.88;;;9.40;99.90;;;;;;4980415;28;20007;-79
2022/03/30 04:33:41;;;;;;;13.73;5.25;;;9.40;99.90;;;;;;4995599;28;20021;-79
2022/03/30 04:36:07;;;;;;;15.75;4.80;;;9.40;99.90;;;;;;4995979;28;20471;-79
2022/03/30 04:38:33;;;;;;;14.55;4.07;;;9.40;99.90;;;;;;4979415;28;20037;-79
2022/03/30 04:41:00;;;;;;;15.63;4.38;;;9.40;99.90;;;;;;4979787;28;20043;-79
2022/03/30 04:43:45;;;;;;;11.85;3.90;;;9.40;99.90;;;;;;4980508;28;20027;-79
2022/03/30 04:46:13;;;;;;;14.35;4.38;;;9.40;99.90;;;;;;4977351;28;20023;-79
2022/03/30 04:48:39;;;;;;;11.90;4.80;;;9.40;99.90;;;;;;4995608;28;20062;-79
2022/03/30 04:51:13;;;;;;;16.00;4.93;;;9.40;99.90;;;;;;4979610;28;20129;-79
2022/03/30 04:53:39;;;;;;;14.90;5.50;;;9.40;99.90;;;;;;4978565;28;20034;-79
2022/03/30 04:56:05;;;;;;;14.52;4.93;;;9.40;99.90;;;;;;4994802;28;20027;-79
2022/03/30 04:58:31;;;;;;;13.27;4.65;;;9.50;99.90;;;;;;4979710;28;20098;-79
2022/03/30 05:00:57;;;;;;;13.35;4.93;;;9.50;99.90;;;;;;4977149;28;20085;-78
2022/03/30 05:03:23;;;;;;;17.88;5.00;;;10.60;99.90;;;;;;4979298;28;20051;-79
2022/03/30 05:05:48;;;;;;;22.17;4.35;;;9.50;99.90;;;;;;4997473;28;20015;-79
2022/03/30 05:08:14;;;;;;;10.38;4.05;;;9.50;99.90;;;;;;4994359;28;20141;-79
2022/03/30 05:10:47;;;;;;;7.53;4.78;;;9.50;99.90;;;;;;4995551;28;20027;-79
2022/03/30 05:13:14;;;;;;;13.63;4.55;;;9.50;99.90;;;;;;4996074;28;20014;-80
2022/03/30 05:15:40;;;;;;;18.52;5.32;;;9.50;99.90;;;;;;4997183;28;20027;-77
2022/03/30 05:18:06;;;;;;;10.75;4.72;;;9.50;99.90;;;;;;4980218;28;20018;-80
2022/03/30 05:20:33;;;;;;;18.05;5.43;;;9.50;99.90;;;;;;4995911;28;20034;-79
2022/03/30 05:22:58;;;;;;;13.15;5.28;;;9.40;99.90;;;;;;4978800;28;20022;-80
2022/03/30 05:25:35;;;;;;;20.27;4.88;;;9.40;99.90;;;;;;4975266;28;20007;-85
2022/03/30 05:28:01;;;;;;;9.63;4.53;;;9.30;99.90;;;;;;4969698;28;20062;-82
2022/03/30 05:30:27;;;;;;;10.18;4.47;;;9.30;99.90;;;;;;4966647;28;20022;-84
2022/03/30 05:32:52;;;;;;;16.00;5.80;;;9.10;99.90;;;;;;4963346;28;20030;-82
2022/03/30 05:35:19;;;;;;;17.42;5.47;;;9.20;99.90;;;;;;4963463;28;20391;-82
2022/03/30 05:40:20;;;;;;;17.80;5.28;;;9.10;99.90;;;;;;5978379;23;19921;-81
2022/03/30 05:43:06;;;;;;;16.65;5.13;;;9.10;99.90;;;;;;4970378;28;20046;-85
2022/03/30 05:45:32;;;;;;;13.27;5.32;;;9.00;99.90;;;;;;4973250;28;20015;-85
2022/03/30 05:48:05;;;;;;;16.88;5.57;;;9.40;99.90;;;;;;4974226;28;20038;-81
2022/03/30 05:50:31;;;;;;;11.50;4.80;;;8.90;99.90;;;;;;4968952;28;20031;-82
2022/03/30 05:52:57;;;;;;;12.45;4.95;;;9.00;99.90;;;;;;4966902;28;20042;-81
2022/03/30 05:55:23;;;;;;;12.20;5.22;;;8.90;99.90;;;;;;4962471;28;20163;-84
2022/03/30 05:57:54;;;;;;;12.82;4.75;;;9.00;99.90;;;;;;5007372;23;20055;-84
2022/03/30 06:00:20;;;;;;;15.57;4.63;;;8.90;99.90;;;;;;4933020;29;20031;-84
2022/03/30 06:02:45;;;;;;;10.43;5.50;;;8.90;99.90;;;;;;4951312;29;20011;-81
2022/03/30 06:05:11;;;;;;;19.13;6.00;;;8.90;99.90;;;;;;4952890;28;20032;-83
2022/03/30 06:07:37;;;;;;;16.63;5.38;;;7.30;99.90;;;;;;4933242;29;20027;-84
2022/03/30 06:10:19;;;;;;;9.35;4.72;;;8.90;99.90;;;;;;4952363;29;20015;-81
2022/03/30 06:12:47;;;;;;;12.65;5.32;;;8.90;99.90;;;;;;4933648;29;20292;-84
2022/03/30 06:15:27;;;;;;;13.90;5.20;;;8.90;99.90;;;;;;4938321;29;20055;-81
2022/03/30 06:18:03;;;;;;;11.13;4.28;;;8.90;99.90;;;;;;4930092;29;20035;-82
2022/03/30 06:20:29;;;;;;;9.20;4.35;;;8.90;99.90;;;;;;4924639;29;20102;-82
2022/03/30 06:22:55;;;;;;;11.05;5.47;;;8.80;99.90;;;;;;4937804;29;20500;-81
2022/03/30 06:25:22;;;;;;;10.23;4.03;;;8.80;99.90;;;;;;4919888;29;20099;-82
2022/03/30 06:27:48;;;;;;;15.02;5.18;;;8.80;99.90;;;;;;4922578;29;20016;-81
2022/03/30 06:30:14;;;;;;;12.80;5.05;;;8.80;99.90;;;;;;4935299;29;20035;-82
2022/03/30 06:32:40;;;;;;;21.67;6.55;;;8.80;99.90;;;;;;4942628;29;20492;-82
2022/03/30 06:35:07;;;;;;;10.77;5.35;;;8.80;99.90;;;;;;4924669;29;20073;-81
2022/03/30 06:37:33;;;;;;;15.57;5.93;;;8.80;99.90;;;;;;4914177;29;20399;-81
2022/03/30 06:39:59;;;;;;;23.13;7.70;;;8.80;99.90;;;;;;4929542;29;20024;-81
2022/03/30 06:42:25;;;;;;;15.40;6.90;;;8.80;99.90;;;;;;4913983;29;20039;-80
2022/03/30 06:44:50;;;;;;;16.23;6.80;;;8.80;99.90;;;;;;4930750;29;20055;-80
2022/03/30 06:47:16;;;;;;;14.38;6.93;;;8.80;99.90;;;;;;4930153;29;20070;-79
2022/03/30 06:49:42;;;;;;;19.92;7.60;;;8.80;99.90;;;;;;4930084;29;20827;-79
2022/03/30 06:52:09;;;;;;;12.32;7.07;;;8.80;99.90;;;;;;4929887;29;20031;-79
2022/03/30 06:54:37;;;;;;;17.25;6.57;;;8.80;99.90;;;;;;4913021;29;20046;-80
2022/03/30 06:57:04;;;;;;;29.00;6.45;;;8.80;99.90;;;;;;4928767;29;20157;-80
2022/03/30 06:59:29;;;;;;;15.75;6.53;;;8.80;99.90;;;;;;4928966;29;20020;-79
2022/03/30 07:01:55;;;;;;;18.17;7.93;;;8.70;99.90;;;;;;4929203;29;20152;-79
2022/03/30 07:04:24;;;;;;;30.70;9.30;;;8.80;99.90;;;;;;4927986;29;20381;-79
2022/03/30 07:12:19;;;;;;;20.05;6.93;;;8.90;99.90;;;;;;4931232;29;20043;-79
2022/03/30 07:14:46;;;;;;;20.65;8.13;;;9.00;99.90;;;;;;4930125;29;20028;-79
2022/03/30 07:17:13;;;;;;;27.65;8.38;;;9.00;99.90;;;;;;4937951;29;20053;-76
2022/03/30 07:19:40;;;;;;;15.93;6.20;;;9.00;99.90;;;;;;4937844;29;20027;-78
2022/03/30 07:22:06;;;;;;;19.60;7.50;;;9.00;99.90;;;;;;4928620;29;20086;-76
2022/03/30 07:24:33;;;;;;;15.85;6.40;;;9.00;99.90;;;;;;4929659;29;20051;-78
2022/03/30 07:26:58;;;;;;;15.85;7.32;;;9.10;99.90;;;;;;4929692;29;20031;-79
2022/03/30 07:29:24;;;;;;;27.90;7.82;;;9.10;99.90;;;;;;4927750;29;20079;-79
2022/03/30 07:31:50;;;;;;;12.48;7.25;;;9.10;99.90;;;;;;4930171;29;20310;-79
2022/03/30 07:34:17;;;;;;;22.95;8.07;;;9.20;99.90;;;;;;4933268;29;20043;-79
2022/03/30 07:36:42;;;;;;;16.88;6.85;;;9.20;99.90;;;;;;4932620;29;20122;-80
2022/03/30 07:39:08;;;;;;;18.33;6.90;;;9.30;99.90;;;;;;4929865;29;20497;-81
2022/03/30 07:41:34;;;;;;;31.40;7.10;;;9.40;99.90;;;;;;4930209;29;20039;-78
2022/03/30 07:44:00;;;;;;;18.52;6.55;;;9.30;99.90;;;;;;4929480;29;20031;-80
2022/03/30 07:46:25;;;;;;;27.83;6.93;;;9.30;99.90;;;;;;4930446;29;20035;-78
2022/03/30 07:48:51;;;;;;;27.45;8.18;;;9.20;99.90;;;;;;4932981;29;20027;-80
2022/03/30 07:51:17;;;;;;;14.88;6.05;;;9.10;99.90;;;;;;4933224;29;20028;-78
2022/03/30 07:53:43;;;;;;;19.58;5.93;;;9.00;99.90;;;;;;4933081;29;20480;-78
2022/03/30 07:56:08;;;;;;;19.75;7.32;;;9.00;99.90;;;;;;4934679;29;20076;-80
2022/03/30 07:58:34;;;;;;;20.63;8.05;;;9.00;99.90;;;;;;4926146;29;20046;-80
2022/03/30 08:01:05;;;;;;;18.13;6.50;;;9.20;99.90;;;;;;4936577;29;20074;-83
2022/03/30 08:03:32;;;;;;;18.70;8.38;;;9.20;99.90;;;;;;4934780;29;20028;-80
2022/03/30 08:05:57;;;;;;;15.90;6.38;;;9.30;99.90;;;;;;4940184;29;20449;-83
2022/03/30 08:08:23;;;;;;;25.17;8.52;;;9.40;99.90;;;;;;4934550;29;20038;-81
2022/03/30 08:10:49;;;;;;;17.65;7.25;;;9.50;99.90;;;;;;4934864;29;20107;-81
2022/03/30 08:13:15;;;;;;;26.67;7.88;;;9.50;99.90;;;;;;4936725;29;20594;-81
2022/03/30 08:15:42;;;;;;;16.58;6.40;;;9.70;99.90;;;;;;4943137;29;20092;-80
2022/03/30 08:18:09;;;;;;;17.65;6.78;;;9.80;99.90;;;;;;4929716;29;20075;-81
2022/03/30 08:23:19;;;;;;;22.98;6.97;;;9.90;99.90;;;;;;4956484;29;20074;-81
2022/03/30 08:25:45;;;;;;;16.02;7.18;;;10.10;99.90;;;;;;4948692;28;20035;-81
2022/03/30 08:28:11;;;;;;;12.95;7.05;;;10.20;99.90;;;;;;4968413;28;20027;-81
2022/03/30 08:30:37;;;;;;;15.98;6.60;;;10.40;99.90;;;;;;4956026;28;20016;-84
2022/03/30 08:33:04;;;;;;;13.38;7.20;;;10.70;99.90;;;;;;4931856;29;20019;-80
2022/03/30 08:35:33;;;;;;;15.13;6.07;;;10.90;99.90;;;;;;4931231;29;20027;-80
2022/03/30 08:37:59;;;;;;;15.98;6.20;;;11.10;99.90;;;;;;4931613;29;20366;-82
2022/03/30 08:40:26;;;;;;;15.98;7.38;;;11.30;99.90;;;;;;4952181;29;20039;-79
2022/03/30 08:42:55;;;;;;;20.67;6.78;;;11.40;99.90;;;;;;4950116;29;20026;-81
2022/03/30 08:45:21;;;;;;;15.32;5.63;;;11.70;99.90;;;;;;4932365;29;20099;-83
2022/03/30 10:40:41;;;;;;;12.43;3.53;;;14.00;99.90;;;;;;5456319;23;20076;-85
2022/03/30 10:43:31;;;;;;;12.88;3.55;;;14.00;99.90;;;;;;4934431;29;20032;-85
2022/03/30 10:46:02;;;;;;;13.13;4.13;;;14.20;99.90;;;;;;4937990;29;20055;-86
2022/03/30 10:49:12;;;;;;;17.73;4.63;;;16.00;99.90;;;;;;4941061;29;20084;-86
2022/03/30 10:52:11;;;;;;;15.77;5.03;;;14.90;99.90;;;;;;5145084;23;20209;-86
2022/03/30 10:55:00;;;;;;;12.90;3.67;;;15.20;99.90;;;;;;4961913;29;20102;-84
2022/03/30 10:58:03;;;;;;;11.75;3.97;;;15.10;99.90;;;;;;4959205;29;20050;-86
2022/03/30 11:01:13;;;;;;;9.88;3.65;;;15.00;99.90;;;;;;4974416;29;20039;-86
2022/03/30 11:04:17;;;;;;;11.80;3.72;;;15.40;99.90;;;;;;4978170;28;20042;-85
2022/03/30 11:07:07;;;;;;;15.38;3.95;;;15.50;99.90;;;;;;4932135;29;20048;-86
2022/03/30 11:09:40;;;;;;;16.42;3.47;;;19.10;99.90;;;;;;4975210;29;20039;-85
2022/03/30 11:12:32;;;;;;;13.45;4.80;;;14.40;99.90;;;;;;4971977;29;20059;-85
2022/03/30 11:15:04;;;;;;;12.70;3.17;;;14.30;99.90;;;;;;4955738;29;20039;-85
2022/03/30 11:17:32;;;;;;;17.67;3.33;;;14.30;99.90;;;;;;4957157;29;20019;-86
2022/03/30 11:20:03;;;;;;;23.92;4.60;;;17.90;99.90;;;;;;4939934;28;21922;-84
2022/03/30 11:22:37;;;;;;;21.95;5.10;;;14.60;99.90;;;;;;4955996;29;20027;-85
2022/03/30 11:25:26;;;;;;;14.00;4.03;;;14.60;99.90;;;;;;4961321;29;20043;-85
2022/03/30 11:28:01;;;;;;;13.40;4.43;;;14.60;99.90;;;;;;4965206;29;20042;-87
2022/03/30 11:30:38;;;;;;;18.92;4.75;;;14.90;99.90;;;;;;4955356;28;20235;-80
2022/03/30 11:33:22;;;;;;;11.20;3.17;;;14.80;99.90;;;;;;4960489;28;20094;-84
2022/03/30 11:35:50;;;;;;;20.67;5.25;;;15.10;99.90;;;;;;4968351;28;20040;-82
2022/03/30 11:38:27;;;;;;;9.55;3.50;;;15.30;99.90;;;;;;4963809;29;20437;-81
2022/03/30 11:41:08;;;;;;;21.33;6.10;;;15.60;99.90;;;;;;4931551;29;20066;-82
2022/03/30 11:46:33;;;;;;;15.68;4.07;;;15.70;99.90;;;;;;4922810;29;20042;-83
2022/03/30 11:49:04;;;;;;;24.30;4.43;;;15.50;99.90;;;;;;4947446;29;20058;-82
2022/03/30 11:51:30;;;;;;;18.10;3.80;;;15.70;99.90;;;;;;4961234;28;20034;-83
2022/03/30 11:54:16;;;;;;;16.05;3.70;;;15.80;99.90;;;;;;4968063;28;20333;-79
2022/03/30 11:56:42;;;;;;;14.45;4.45;;;15.70;99.90;;;;;;4978760;28;20048;-82
2022/03/30 11:59:08;;;;;;;9.27;3.20;;;15.70;99.90;;;;;;4979561;28;20019;-81
2022/03/30 12:01:35;;;;;;;13.07;3.97;;;15.80;99.90;;;;;;4961000;28;20061;-82
2022/03/30 12:04:01;;;;;;;21.73;4.47;;;16.00;99.90;;;;;;4973875;28;20031;-85
2022/03/30 12:06:28;;;;;;;18.42;4.25;;;16.00;98.20;;;;;;4969013;28;20062;-84
2022/03/30 12:08:54;;;;;;;12.82;3.53;;;15.90;99.90;;;;;;4954489;28;20059;-87
2022/03/30 12:11:20;;;;;;;9.70;3.45;;;15.90;99.90;;;;;;4948813;28;20023;-83
2022/03/30 12:13:57;;;;;;;18.58;4.25;;;16.10;99.90;;;;;;4971321;28;20066;-92
2022/03/30 12:16:26;;;;;;;14.98;4.30;;;15.30;99.90;;;;;;4983018;28;20030;-81
2022/03/30 12:19:00;;;;;;;11.93;3.77;;;15.30;99.90;;;;;;4946852;29;20047;-80
2022/03/30 12:21:29;;;;;;;16.38;5.00;;;15.30;99.90;;;;;;4941799;29;20118;-80
2022/03/30 12:24:01;;;;;;;14.93;4.20;;;15.90;99.90;;;;;;4941182;29;20087;-80
2022/03/30 12:26:27;;;;;;;18.88;4.55;;;18.90;99.90;;;;;;4922415;29;20032;-81
2022/03/30 12:29:14;;;;;;;12.27;3.42;;;15.70;99.90;;;;;;4933801;29;20083;-80
2022/03/30 12:31:59;;;;;;;21.77;5.57;;;15.90;99.90;;;;;;4915136;29;20031;-83
2022/03/30 12:34:27;;;;;;;9.38;3.70;;;15.90;99.90;;;;;;4948654;28;20476;-82
2022/03/30 12:36:58;;;;;;;11.57;4.18;;;15.40;99.90;;;;;;4952446;29;20031;-84
2022/03/30 12:39:33;;;;;;;14.02;4.20;;;15.00;99.90;;;;;;4956515;29;20066;-80
2022/03/30 12:42:10;;;;;;;7.05;2.53;;;13.40;99.90;;;;;;4956686;28;20075;-83
2022/03/30 12:44:41;;;;;;;8.68;2.45;;;12.40;99.90;;;;;;4957355;29;20048;-84
2022/03/30 12:47:36;;;;;;;6.20;2.33;;;11.80;99.90;;;;;;4958389;29;20076;-82
2022/03/30 12:50:10;;;;;;;7.30;1.88;;;11.90;99.90;;;;;;4957212;29;20087;-83
2022/03/30 12:52:42;;;;;;;6.25;2.05;;;11.80;99.90;;;;;;4967193;29;20051;-83
2022/03/30 12:55:36;;;;;;;4.53;1.77;;;11.70;99.90;;;;;;4946571;29;20023;-81
2022/03/30 12:58:02;;;;;;;12.93;2.85;;;12.10;99.90;;;;;;4955798;29;20023;-83
2022/03/30 13:00:37;;;;;;;8.07;3.92;;;12.40;99.90;;;;;;4956720;29;20065;-83
2022/03/30 13:03:04;;;;;;;5.18;2.50;;;12.60;99.90;;;;;;4945562;29;20105;-83
2022/03/30 13:05:30;;;;;;;10.23;2.80;;;12.90;99.90;;;;;;4951471;29;20023;-80
2022/03/30 13:07:55;;;;;;;10.63;3.67;;;12.30;99.90;;;;;;4955022;29;20023;-82
2022/03/30 13:10:23;;;;;;;8.00;2.83;;;12.00;99.90;;;;;;4951224;29;20547;-83
2022/03/30 13:12:55;;;;;;;9.25;3.08;;;12.00;99.90;;;;;;4973924;29;20023;-83
2022/03/30 13:15:24;;;;;;;9.55;3.42;;;12.00;99.90;;;;;;4954193;29;20035;-82
2022/03/30 13:18:18;;;;;;;15.43;4.63;;;12.30;99.90;;;;;;4956332;29;20016;-82
2022/03/30 13:20:57;;;;;;;6.70;3.40;;;12.40;99.90;;;;;;4954213;29;20039;-82
2022/03/30 13:23:34;;;;;;;11.80;4.80;;;12.60;99.90;;;;;;4953034;29;20555;-82
2022/03/30 13:26:01;;;;;;;13.73;4.18;;;12.60;99.90;;;;;;4948817;29;20448;-82
2022/03/30 13:28:28;;;;;;;11.57;4.22;;;12.80;99.90;;;;;;4948445;29;20027;-83
2022/03/30 13:30:54;;;;;;;19.92;3.17;;;13.00;99.90;;;;;;4950524;29;20061;-82
2022/03/30 13:33:21;;;;;;;16.02;4.65;;;13.20;99.90;;;;;;4953285;29;20078;-83
2022/03/30 13:35:51;;;;;;;11.32;3.17;;;13.30;99.90;;;;;;4951370;29;20035;-84
2022/03/30 13:38:29;;;;;;;14.13;4.60;;;12.90;99.90;;;;;;4952007;28;20022;-84
2022/03/30 13:40:59;;;;;;;11.85;3.83;;;;;;;;;;4947445;29;20111;-85
2022/03/30 13:43:25;;;;;;;10.38;3.13;;;;;;;;;;4952592;29;20042;-84
2022/03/30 13:53:47;;;;;;;15.32;3.40;;;13.60;99.90;;;;;;5015558;23;20067;-90
2022/03/30 13:59:51;;;;;;;11.65;3.67;;;14.80;99.90;;;;;;4943493;28;20408;-92
2022/03/30 14:02:16;;;;;;;9.70;3.47;;;15.50;99.90;;;;;;4913876;29;20035;-89
2022/03/30 14:04:42;;;;;;;9.80;3.45;;;15.60;99.90;;;;;;4914269;29;20074;-93
2022/03/30 14:07:08;;;;;;;13.15;3.05;;;15.20;99.90;;;;;;4914598;29;20035;-91
2022/03/30 14:10:10;;;;;;;11.02;4.05;;;15.00;99.90;;;;;;4928088;28;20089;-88
2022/03/30 14:12:42;;;;;;;13.77;4.07;;;13.50;99.90;;;;;;4960775;29;20109;-86
2022/03/30 14:15:09;;;;;;;10.23;3.83;;;15.20;99.90;;;;;;4929002;28;20028;-86
2022/03/30 14:17:46;;;;;;;14.43;4.20;;;11.20;99.90;;;;;;4928623;29;20042;-86
2022/03/30 14:20:16;;;;;;;14.02;4.28;;;14.60;99.90;;;;;;4937291;28;20108;-85
2022/03/30 14:23:22;;;;;;;13.18;4.43;;;14.30;99.90;;;;;;4929115;28;20039;-87
2022/03/30 14:25:49;;;;;;;13.65;4.38;;;14.20;99.90;;;;;;5153713;23;20056;-92
2022/03/30 14:28:15;;;;;;;12.63;4.25;;;14.80;99.90;;;;;;4931509;29;20126;-92
2022/03/30 14:30:41;;;;;;;5.45;2.50;;;15.20;99.90;;;;;;4915520;29;20118;-91
2022/03/30 14:33:21;;;;;;;12.60;3.53;;;15.10;99.90;;;;;;4936551;29;20024;-87
2022/03/30 14:35:57;;;;;;;8.35;3.30;;;14.50;99.90;;;;;;4932065;29;20667;-91
2022/03/30 14:38:23;;;;;;;11.93;2.90;;;15.10;99.90;;;;;;4923731;29;20517;-90
2022/03/30 14:40:51;;;;;;;11.43;2.67;;;15.20;99.90;;;;;;4931457;29;20040;-93
2022/03/30 14:43:26;;;;;;;11.60;3.28;;;14.90;99.90;;;;;;4925043;28;20011;-85
2022/03/30 14:45:53;;;;;;;19.80;3.70;;;14.70;99.90;;;;;;4960655;28;20039;-87
2022/03/30 14:48:40;;;;;;;10.35;3.90;;;13.90;99.90;;;;;;4959763;28;20019;-85
2022/03/30 14:52:09;;;;;;;;;;;;;;;;;;;;;
2022/03/30 14:55:33;;;;;;;11.45;3.10;;;13.20;99.90;;;;;;4920995;29;20113;-86
2022/03/30 14:58:01;;;;;;;9.27;3.05;;;13.10;99.90;;;;;;4917308;28;20040;-85
2022/03/30 15:00:42;;;;;;;10.90;3.42;;;13.30;99.90;;;;;;4956879;29;20043;-84
2022/03/30 15:03:11;;;;;;;10.38;3.38;;;13.00;99.90;;;;;;4972422;29;20050;-85
2022/03/30 15:05:44;;;;;;;10.98;3.75;;;13.20;99.90;;;;;;4957491;29;20072;-85
2022/03/30 15:08:32;;;;;;;14.60;4.38;;;13.30;99.90;;;;;;4956599;29;20031;-84
2022/03/30 15:11:03;;;;;;;14.15;4.47;;;13.50;99.90;;;;;;4956339;29;20020;-85
2022/03/30 15:13:53;;;;;;;10.93;3.25;;;13.60;99.90;;;;;;4957710;29;20011;-85
2022/03/30 15:16:26;;;;;;;8.52;3.45;;;13.20;99.90;;;;;;4941438;29;20106;-81
2022/03/30 15:18:53;;;;;;;15.00;4.07;;;13.40;99.90;;;;;;4949467;29;20264;-83
2022/03/30 15:21:35;;;;;;;20.48;4.63;;;13.20;99.90;;;;;;4950159;29;20091;-82